Oakfield, GA (31772)

6:54 PM EST on December 20, 2014 (GMT -0500)
Lyle Farms | Change Station
CLOSE
Current Station
Personal Weather Station
Location: Cobb, GA
Elevation: 285 ft
Nearby Weather Stations

Elev 285 ft 31.98 °N, 83.96 °W | Updated 10 minutes ago

Overcast
Overcast
53.5 °F
Feels Like 53.5 °F
N
1.0
Wind Variable Wind from ESE
Gusts 4.0 mph

Today
High -- | Low -- °F
--% Chance of Precip.
Yesterday
High -- | Low -- °F
Precip. -- in
7:31 AM 5:35 PM
Waning Crescent, 2% visible
Pressure 30.17 in
Visibility 10.0 miles
Clouds Overcast 6000 ft
Dew Point 50 °F
Humidity 89%
Rainfall 0.17 in
Snow Depth Not available.
UV 0 out of 12
Pollen .30 out of 12
Air Quality Not available.
Flu Activity Not available.
METAR KCKF 202330Z AUTO 02003KT 10SM OVC060 13/11 A3017 RMK AO2 T01310105

More Conditions Fewer Conditions

Pressure 30.17 in
Visibility 10.0 miles
Clouds Overcast 6000 ft
Dew Point 50 °F
Humidity 89%
Rainfall 0.17 in
Snow Depth Not available.
UV 0 out of 12
Pollen .30 out of 12
Air Quality Not available.
Flu Activity Not available.
METAR KCKF 202330Z AUTO 02003KT 10SM OVC060 13/11 A3017 RMK AO2 T01310105

More Conditions Fewer Conditions

10-Day Weather Forecast

Almanac

Astronomy

Dec. 20, 2014 Rise Set
Actual Time
Civil Twilight
Nautical Twilight
Astronomical Twilight
Moon
Length of Visible Light
Length of Day
Tomorrow will be .
, % of the Moon is Illuminated

Today's Extremes

State Highs State Lows

Community

WunderPhotos

Upload Photos

1,779,319 photos uploaded!

WunderBlogs® & News

Nearby

Air Quality

  Air Quality AQ Index Pollutant
Not available.

Snow Depth

Station Depth Elevation

Earthquake Activity

City Distance Mag. Time & Date
Minimum magnitude displayed is 2.5.

Coastal Water Temperatures

Place Temperature

Nearby Weather Stations